Time;durP1;ratioP1;P1;durP2;ratioP2;P2;SDS_P1;SDS_P2;PMS_P1;PMS_P2;Temp;Humidity;BMP_temperature;BMP_pressure;BME280_temperature;BME280_humidity;BME280_pressure;Samples;Min_cycle;Max_cycle;Signal;HPM_P1;HPM_P2
2023/01/19 00:02:06;;;;;;;25.77;12.53;;;;;;;;;;4935308;29;20447;-62
2023/01/19 00:04:33;;;;;;;24.40;12.20;;;;;;;;;;4935234;29;20426;-62
2023/01/19 00:07:02;;;;;;;24.17;12.83;;;;;;;;;;4935364;29;20453;-62
2023/01/19 00:09:46;;;;;;;23.67;12.57;;;;;;;;;;4934972;29;20466;-62
2023/01/19 00:12:12;;;;;;;23.13;11.97;;;;;;;;;;4935113;29;20438;-62
2023/01/19 00:14:56;;;;;;;24.23;12.77;;;;;;;;;;4935140;29;20501;-62
2023/01/19 00:17:23;;;;;;;23.87;12.53;;;;;;;;;;4935234;29;20452;-62
2023/01/19 00:19:49;;;;;;;23.80;12.13;;;;;;;;;;4935091;29;20435;-62
2023/01/19 00:22:16;;;;;;;26.53;13.33;;;;;;;;;;4934867;29;20438;-62
2023/01/19 00:24:43;;;;;;;31.30;13.97;;;;;;;;;;4934838;29;20615;-62
2023/01/19 00:27:10;;;;;;;24.10;11.70;;;;;;;;;;4917965;29;20435;-62
2023/01/19 00:29:37;;;;;;;28.33;13.47;;;;;;;;;;4934587;29;20481;-62
2023/01/19 00:32:04;;;;;;;28.60;14.10;;;;;;;;;;4934899;29;20465;-62
2023/01/19 00:34:48;;;;;;;30.53;15.10;;;;;;;;;;4934782;29;20422;-62
2023/01/19 00:37:15;;;;;;;31.77;14.17;;;;;;;;;;4934812;29;20427;-62
2023/01/19 00:39:59;;;;;;;27.90;14.53;;;;;;;;;;4934626;29;20433;-62
2023/01/19 00:42:44;;;;;;;27.47;13.63;;;;;;;;;;4934026;29;20439;-62
2023/01/19 00:45:12;;;;;;;30.50;14.20;;;;;;;;;;4934371;29;20525;-64
2023/01/19 00:47:38;;;;;;;30.10;14.13;;;;;;;;;;4917929;29;20427;-62
2023/01/19 00:50:06;;;;;;;28.73;14.20;;;;;;;;;;4934628;29;20482;-62
2023/01/19 00:52:32;;;;;;;29.83;13.60;;;;;;;;;;4934411;29;20433;-63
2023/01/19 00:54:59;;;;;;;30.93;14.30;;;;;;;;;;4934392;29;20496;-62
2023/01/19 00:57:26;;;;;;;31.60;14.60;;;;;;;;;;4934148;29;20419;-62
2023/01/19 00:59:53;;;;;;;27.90;13.83;;;;;;;;;;4934436;29;20435;-62
2023/01/19 01:02:19;;;;;;;31.33;14.80;;;;;;;;;;4915499;29;20443;-62
2023/01/19 01:04:46;;;;;;;36.87;14.63;;;;;;;;;;4915414;29;20482;-62
2023/01/19 01:07:13;;;;;;;35.63;15.27;;;;;;;;;;4915178;29;20992;-63
2023/01/19 01:09:39;;;;;;;28.40;13.97;;;;;;;;;;4915218;29;20482;-62
2023/01/19 01:12:06;;;;;;;30.50;13.97;;;;;;;;;;4914733;29;20424;-62
2023/01/19 01:14:33;;;;;;;29.23;15.03;;;;;;;;;;4915118;29;20446;-62
2023/01/19 01:16:59;;;;;;;34.13;15.30;;;;;;;;;;4915300;29;20431;-62
2023/01/19 01:19:26;;;;;;;30.70;14.67;;;;;;;;;;4914888;29;20448;-62
2023/01/19 01:21:54;;;;;;;33.80;15.30;;;;;;;;;;4915277;29;20435;-62
2023/01/19 01:24:21;;;;;;;33.03;15.90;;;;;;;;;;4915062;29;20444;-62
2023/01/19 01:26:47;;;;;;;31.10;14.40;;;;;;;;;;4914846;29;20852;-62
2023/01/19 01:29:14;;;;;;;28.53;14.00;;;;;;;;;;4914915;29;20475;-63
2023/01/19 01:31:40;;;;;;;29.43;14.83;;;;;;;;;;4914961;29;20475;-62
2023/01/19 01:34:07;;;;;;;31.40;15.03;;;;;;;;;;4914814;29;20493;-63
2023/01/19 01:36:34;;;;;;;32.30;15.80;;;;;;;;;;4914586;29;20444;-62
2023/01/19 01:39:01;;;;;;;35.63;15.47;;;;;;;;;;4914581;29;20558;-62
2023/01/19 01:41:28;;;;;;;29.53;14.77;;;;;;;;;;4913420;29;20424;-62
2023/01/19 02:18:46;;;;;;;24.40;11.43;;;;;;;;;;4914135;29;20438;-62
2023/01/19 02:21:12;;;;;;;23.13;11.23;;;;;;;;;;4913971;29;20431;-62
2023/01/19 02:23:43;;;;;;;22.77;11.40;;;;;;;;;;4914156;29;20436;-62
2023/01/19 02:26:11;;;;;;;20.63;10.47;;;;;;;;;;4914021;29;21008;-62
2023/01/19 02:28:38;;;;;;;22.77;11.27;;;;;;;;;;4912471;29;20456;-62
2023/01/19 02:31:05;;;;;;;18.80;9.40;;;;;;;;;;4912206;29;20483;-62
2023/01/19 02:33:32;;;;;;;22.80;10.40;;;;;;;;;;4897149;29;20440;-62
2023/01/19 02:35:59;;;;;;;20.23;10.83;;;;;;;;;;4912695;29;20467;-62
2023/01/19 02:38:26;;;;;;;20.73;9.40;;;;;;;;;;4913891;29;20439;-62
2023/01/19 02:40:56;;;;;;;20.63;9.60;;;;;;;;;;4914249;29;20845;-62
2023/01/19 02:43:23;;;;;;;23.60;10.30;;;;;;;;;;4912298;29;20435;-62
2023/01/19 02:45:49;;;;;;;23.83;10.73;;;;;;;;;;4913652;29;20432;-62
2023/01/19 02:48:17;;;;;;;20.67;7.80;;;;;;;;;;4912493;29;20797;-62
2023/01/19 02:50:48;;;;;;;20.10;8.67;;;;;;;;;;4912459;29;20471;-62
2023/01/19 02:53:31;;;;;;;19.43;9.27;;;;;;;;;;4914122;29;20529;-62
2023/01/19 02:56:00;;;;;;;19.07;9.47;;;;;;;;;;4913892;29;20439;-62
2023/01/19 02:58:32;;;;;;;19.93;8.60;;;;;;;;;;4913492;29;20513;-62
2023/01/19 03:01:32;;;;;;;16.23;7.77;;;;;;;;;;4920782;29;20439;-62
2023/01/19 03:04:02;;;;;;;17.27;7.90;;;;;;;;;;4900577;29;20454;-62
2023/01/19 03:06:47;;;;;;;20.90;8.77;;;;;;;;;;4920862;29;20667;-62
2023/01/19 03:09:13;;;;;;;21.13;9.83;;;;;;;;;;4919440;29;20434;-62
2023/01/19 03:11:40;;;;;;;14.90;7.77;;;;;;;;;;4936091;29;20478;-62
2023/01/19 03:14:14;;;;;;;16.00;7.77;;;;;;;;;;4919594;29;20942;-62
2023/01/19 03:16:45;;;;;;;16.87;7.47;;;;;;;;;;4919041;29;20446;-62
2023/01/19 03:19:13;;;;;;;14.10;7.13;;;;;;;;;;4919478;29;20446;-62
2023/01/19 03:21:41;;;;;;;16.30;8.33;;;;;;;;;;4919430;29;20815;-61
2023/01/19 03:24:08;;;;;;;16.60;7.57;;;;;;;;;;4919396;29;20435;-62
2023/01/19 03:26:36;;;;;;;16.10;7.53;;;;;;;;;;4919034;29;20494;-62
2023/01/19 03:29:03;;;;;;;16.60;7.77;;;;;;;;;;4918865;29;20478;-63
2023/01/19 03:31:30;;;;;;;15.30;7.63;;;;;;;;;;4918967;29;21060;-62
2023/01/19 03:33:59;;;;;;;17.77;7.60;;;;;;;;;;4918746;29;20445;-62
2023/01/19 03:36:28;;;;;;;14.20;7.47;;;;;;;;;;4918824;29;20430;-62
2023/01/19 03:38:54;;;;;;;16.83;7.83;;;;;;;;;;4901323;29;20825;-63
2023/01/19 03:41:21;;;;;;;16.60;7.50;;;;;;;;;;4935016;29;20442;-62
2023/01/19 03:43:48;;;;;;;17.60;7.60;;;;;;;;;;4934620;29;20525;-63
2023/01/19 03:46:16;;;;;;;20.93;8.87;;;;;;;;;;4935139;29;20490;-62
2023/01/19 03:48:43;;;;;;;18.00;9.10;;;;;;;;;;4949837;29;21061;-63
2023/01/19 03:51:10;;;;;;;20.17;9.67;;;;;;;;;;4919151;29;20593;-62
2023/01/19 03:53:54;;;;;;;23.47;10.27;;;;;;;;;;4934815;29;20426;-62
2023/01/19 03:56:24;;;;;;;24.13;10.87;;;;;;;;;;4942760;29;20461;-62
2023/01/19 03:58:50;;;;;;;22.37;10.63;;;;;;;;;;4940875;29;20442;-63
2023/01/19 04:01:21;;;;;;;20.07;9.83;;;;;;;;;;4936223;29;20435;-63
2023/01/19 04:03:49;;;;;;;21.63;10.60;;;;;;;;;;4930665;29;21092;-62
2023/01/19 04:06:16;;;;;;;21.10;10.33;;;;;;;;;;4935519;28;21231;-63
2023/01/19 04:08:42;;;;;;;19.43;9.70;;;;;;;;;;4934853;29;21212;-63
2023/01/19 04:11:10;;;;;;;19.57;9.37;;;;;;;;;;4931780;29;20478;-61
2023/01/19 04:13:36;;;;;;;18.97;9.17;;;;;;;;;;4939511;29;20476;-62
2023/01/19 04:16:03;;;;;;;18.40;8.77;;;;;;;;;;4938577;29;20525;-62
2023/01/19 04:18:31;;;;;;;16.70;9.10;;;;;;;;;;4940779;28;20460;-63
2023/01/19 04:21:15;;;;;;;17.50;8.93;;;;;;;;;;4939376;29;20457;-63
2023/01/19 04:23:43;;;;;;;19.00;9.30;;;;;;;;;;4937266;29;20442;-62
2023/01/19 04:26:10;;;;;;;17.80;9.10;;;;;;;;;;4939951;28;20506;-63
2023/01/19 04:28:36;;;;;;;18.03;8.53;;;;;;;;;;4934710;28;20815;-61
2023/01/19 04:31:03;;;;;;;15.50;7.90;;;;;;;;;;4937668;29;20588;-62
2023/01/19 04:33:30;;;;;;;17.47;8.27;;;;;;;;;;4935082;29;20791;-63
2023/01/19 04:35:57;;;;;;;16.50;8.03;;;;;;;;;;4936779;29;20453;-64
2023/01/19 04:38:24;;;;;;;16.43;7.80;;;;;;;;;;4940226;29;20443;-64
2023/01/19 04:40:51;;;;;;;15.60;7.97;;;;;;;;;;4939220;29;20443;-64
2023/01/19 04:43:21;;;;;;;14.20;7.53;;;;;;;;;;4937936;29;20440;-64
2023/01/19 04:45:48;;;;;;;18.47;8.53;;;;;;;;;;4937087;29;20688;-63
2023/01/19 04:48:15;;;;;;;18.30;9.43;;;;;;;;;;4920554;29;20434;-63
2023/01/19 04:50:41;;;;;;;19.27;9.10;;;;;;;;;;4902280;29;20478;-63
2023/01/19 04:53:08;;;;;;;16.70;8.33;;;;;;;;;;4932616;28;20572;-62
2023/01/19 04:55:36;;;;;;;17.67;8.33;;;;;;;;;;4929472;29;21065;-62
2023/01/19 04:58:02;;;;;;;17.07;9.67;;;;;;;;;;4934562;29;20454;-62
2023/01/19 05:00:29;;;;;;;17.70;9.50;;;;;;;;;;4938206;29;20557;-62
2023/01/19 05:02:56;;;;;;;18.63;9.40;;;;;;;;;;4912614;29;20478;-63
2023/01/19 05:05:23;;;;;;;19.03;9.53;;;;;;;;;;4938429;28;20441;-63
2023/01/19 05:07:49;;;;;;;16.50;8.77;;;;;;;;;;4940645;29;20438;-62
2023/01/19 05:10:16;;;;;;;21.17;10.80;;;;;;;;;;4937504;29;20485;-62
2023/01/19 05:12:43;;;;;;;22.80;10.90;;;;;;;;;;4936553;29;20446;-63
2023/01/19 05:15:10;;;;;;;22.13;10.20;;;;;;;;;;4934561;28;20450;-63
2023/01/19 05:17:36;;;;;;;23.17;10.67;;;;;;;;;;4935068;29;20465;-62
2023/01/19 05:20:03;;;;;;;19.40;11.00;;;;;;;;;;4939560;28;20520;-62
2023/01/19 05:22:30;;;;;;;22.27;11.20;;;;;;;;;;4938185;28;20449;-62
2023/01/19 05:25:14;;;;;;;22.30;11.60;;;;;;;;;;4938326;29;20429;-62
2023/01/19 05:27:41;;;;;;;27.57;12.47;;;;;;;;;;4936978;29;20442;-62
2023/01/19 05:30:09;;;;;;;26.43;15.33;;;;;;;;;;4923094;29;20458;-62
2023/01/19 05:32:35;;;;;;;18.77;10.30;;;;;;;;;;4935448;29;20485;-61
2023/01/19 05:35:02;;;;;;;20.00;11.33;;;;;;;;;;4938453;28;20446;-63
2023/01/19 05:37:31;;;;;;;23.23;11.27;;;;;;;;;;4934279;29;20437;-63
2023/01/19 05:39:58;;;;;;;21.50;11.23;;;;;;;;;;4934684;29;20505;-61
2023/01/19 05:42:24;;;;;;;18.93;10.33;;;;;;;;;;4936228;29;20497;-61
2023/01/19 05:44:51;;;;;;;21.27;11.03;;;;;;;;;;4938480;28;20449;-63
2023/01/19 05:47:18;;;;;;;19.90;10.60;;;;;;;;;;4918644;29;20447;-62
2023/01/19 05:49:52;;;;;;;17.67;9.90;;;;;;;;;;5060246;28;20963;-64
2023/01/19 05:52:19;;;;;;;21.27;9.73;;;;;;;;;;5060000;28;20800;-62
2023/01/19 05:54:47;;;;;;;17.87;9.93;;;;;;;;;;5059498;28;20444;-62
2023/01/19 05:57:13;;;;;;;18.30;9.80;;;;;;;;;;5056590;28;20519;-63
2023/01/19 05:59:57;;;;;;;22.80;11.23;;;;;;;;;;5059734;28;20939;-63
2023/01/19 06:02:27;;;;;;;23.83;12.67;;;;;;;;;;5031734;28;20942;-64
2023/01/19 06:04:54;;;;;;;26.43;13.37;;;;;;;;;;5001428;28;20443;-64
2023/01/19 06:07:21;;;;;;;25.20;13.47;;;;;;;;;;5001078;28;21317;-64
2023/01/19 06:09:50;;;;;;;27.80;14.30;;;;;;;;;;5001267;28;21143;-63
2023/01/19 06:12:17;;;;;;;29.60;15.80;;;;;;;;;;5001258;28;20443;-63
2023/01/19 06:14:44;;;;;;;28.70;16.23;;;;;;;;;;5000293;28;20479;-63
2023/01/19 06:17:11;;;;;;;30.47;16.33;;;;;;;;;;5001126;28;20962;-64
2023/01/19 06:19:38;;;;;;;25.00;14.07;;;;;;;;;;5001026;28;20450;-63
2023/01/19 06:22:05;;;;;;;26.03;13.03;;;;;;;;;;5001117;28;21009;-63
2023/01/19 06:24:31;;;;;;;23.23;13.27;;;;;;;;;;5000830;28;21273;-63
2023/01/19 06:26:59;;;;;;;23.27;13.10;;;;;;;;;;5000812;28;20431;-65
2023/01/19 06:29:26;;;;;;;21.37;11.13;;;;;;;;;;5000558;28;21100;-64
2023/01/19 06:31:55;;;;;;;23.70;12.27;;;;;;;;;;5000990;28;20435;-64
2023/01/19 06:34:25;;;;;;;24.17;12.90;;;;;;;;;;4998836;28;20443;-63
2023/01/19 06:36:52;;;;;;;32.57;16.37;;;;;;;;;;5000310;28;20443;-63
2023/01/19 06:39:19;;;;;;;29.77;15.63;;;;;;;;;;4998254;28;20443;-62
2023/01/19 06:41:45;;;;;;;30.37;13.87;;;;;;;;;;4999589;28;20461;-63
2023/01/19 06:44:12;;;;;;;28.97;14.73;;;;;;;;;;4999382;28;20433;-66
2023/01/19 06:46:39;;;;;;;26.27;14.33;;;;;;;;;;4999138;28;20439;-66
2023/01/19 06:49:06;;;;;;;26.43;13.37;;;;;;;;;;4998860;28;20482;-65
2023/01/19 06:51:33;;;;;;;25.33;13.00;;;;;;;;;;5000363;28;20458;-63
2023/01/19 06:53:59;;;;;;;27.50;13.07;;;;;;;;;;4998858;28;20443;-63
2023/01/19 06:56:26;;;;;;;25.03;12.13;;;;;;;;;;4999532;28;20546;-66
2023/01/19 06:58:54;;;;;;;28.47;12.40;;;;;;;;;;4999768;28;20439;-65
2023/01/19 07:01:21;;;;;;;26.60;12.93;;;;;;;;;;4984899;28;20446;-66
2023/01/19 07:04:05;;;;;;;38.97;19.67;;;;;;;;;;4975440;28;21005;-67
2023/01/19 07:06:32;;;;;;;44.83;23.13;;;;;;;;;;4985625;28;21014;-64
2023/01/19 07:08:59;;;;;;;46.57;21.53;;;;;;;;;;4985172;28;21007;-65
2023/01/19 07:11:25;;;;;;;31.33;17.10;;;;;;;;;;4985297;28;20440;-65
2023/01/19 07:13:56;;;;;;;27.20;14.53;;;;;;;;;;4986308;28;21085;-64
2023/01/19 07:16:23;;;;;;;26.93;13.43;;;;;;;;;;4986135;28;20435;-66
2023/01/19 07:18:50;;;;;;;24.40;13.70;;;;;;;;;;4984735;28;20519;-65
2023/01/19 07:21:17;;;;;;;27.40;13.33;;;;;;;;;;4986045;28;20436;-65
2023/01/19 07:24:01;;;;;;;26.13;12.83;;;;;;;;;;4985157;28;20432;-65
2023/01/19 07:26:28;;;;;;;27.70;12.40;;;;;;;;;;4985898;28;20486;-65
2023/01/19 07:28:54;;;;;;;25.93;12.97;;;;;;;;;;4983556;28;21235;-65
2023/01/19 07:31:21;;;;;;;61.63;23.03;;;;;;;;;;4985722;28;20448;-64
2023/01/19 07:33:48;;;;;;;65.43;22.63;;;;;;;;;;4983744;28;20432;-65
2023/01/19 07:36:15;;;;;;;56.17;21.90;;;;;;;;;;4974151;28;20451;-65
2023/01/19 07:38:42;;;;;;;47.07;18.57;;;;;;;;;;4985238;28;20444;-65
2023/01/19 07:41:09;;;;;;;31.40;14.37;;;;;;;;;;4985565;28;20447;-65
2023/01/19 07:43:54;;;;;;;32.50;14.33;;;;;;;;;;4985902;28;20439;-66
2023/01/19 07:46:21;;;;;;;27.33;14.33;;;;;;;;;;4984988;28;20504;-64
2023/01/19 07:49:05;;;;;;;34.73;15.20;;;;;;;;;;4984082;28;20490;-65
2023/01/19 07:51:32;;;;;;;31.80;14.93;;;;;;;;;;4985317;28;20440;-65
2023/01/19 07:53:58;;;;;;;33.93;15.43;;;;;;;;;;4983573;28;21173;-67
2023/01/19 07:56:28;;;;;;;31.17;15.77;;;;;;;;;;4983378;28;20482;-65
2023/01/19 08:14:45;;;;;;;26.97;13.33;;;;;;;;;;4977265;28;20787;-64
2023/01/19 08:17:12;;;;;;;27.23;13.57;;;;;;;;;;4980768;28;20541;-64
2023/01/19 08:19:40;;;;;;;26.53;13.03;;;;;;;;;;4982997;28;20432;-65
2023/01/19 08:22:07;;;;;;;26.43;13.67;;;;;;;;;;4982489;28;20452;-64
2023/01/19 08:24:51;;;;;;;27.33;13.30;;;;;;;;;;4984454;28;20428;-64
2023/01/19 08:27:18;;;;;;;27.33;13.60;;;;;;;;;;4984045;28;20431;-66
2023/01/19 08:29:46;;;;;;;24.10;12.83;;;;;;;;;;4985229;28;20496;-65
2023/01/19 08:32:13;;;;;;;24.20;13.67;;;;;;;;;;4986015;28;20777;-64
2023/01/19 08:34:39;;;;;;;25.83;13.33;;;;;;;;;;4984343;28;20526;-64
2023/01/19 08:37:06;;;;;;;26.47;14.17;;;;;;;;;;4985053;28;20448;-64
2023/01/19 08:39:33;;;;;;;22.73;12.63;;;;;;;;;;4985592;28;20514;-64
2023/01/19 08:42:00;;;;;;;24.63;13.17;;;;;;;;;;4987091;28;20490;-63
2023/01/19 08:44:44;;;;;;;29.90;15.27;;;;;;;;;;4979261;28;20440;-64
2023/01/19 08:47:23;;;;;;;37.50;19.10;;;;;;;;;;4984615;28;20462;-64
2023/01/19 08:49:51;;;;;;;35.43;18.93;;;;;;;;;;4983886;28;20562;-65
2023/01/19 08:52:17;;;;;;;44.13;25.67;;;;;;;;;;4983133;28;20449;-65
2023/01/19 08:54:44;;;;;;;38.90;21.23;;;;;;;;;;4984000;28;20454;-64
2023/01/19 08:57:29;;;;;;;41.43;22.93;;;;;;;;;;4983461;28;20432;-63
2023/01/19 08:59:56;;;;;;;31.30;16.73;;;;;;;;;;4983917;28;20432;-63
2023/01/19 09:02:23;;;;;;;34.83;17.03;;;;;;;;;;4984470;28;20471;-61
2023/01/19 09:04:50;;;;;;;28.60;15.60;;;;;;;;;;4982351;28;20447;-63
2023/01/19 09:07:17;;;;;;;33.17;18.17;;;;;;;;;;4984883;28;20188;-62
2023/01/19 09:09:44;;;;;;;34.00;16.67;;;;;;;;;;4988105;28;20226;-61
2023/01/19 09:12:10;;;;;;;34.20;19.03;;;;;;;;;;4990677;28;20440;-63
2023/01/19 09:14:37;;;;;;;44.43;22.17;;;;;;;;;;4990572;28;20435;-62
2023/01/19 09:17:21;;;;;;;38.90;18.83;;;;;;;;;;4990778;28;20530;-62
2023/01/19 09:19:47;;;;;;;35.10;19.10;;;;;;;;;;4990483;28;20436;-63
2023/01/19 09:22:32;;;;;;;43.67;21.73;;;;;;;;;;4990326;28;20857;-64
2023/01/19 09:24:59;;;;;;;50.23;26.63;;;;;;;;;;4990480;28;20603;-63
2023/01/19 09:27:43;;;;;;;42.47;24.17;;;;;;;;;;4990125;28;20175;-63
2023/01/19 09:30:10;;;;;;;39.00;20.83;;;;;;;;;;4988905;28;20483;-63
2023/01/19 09:32:37;;;;;;;39.30;20.83;;;;;;;;;;4989285;28;20227;-63
2023/01/19 09:35:03;;;;;;;35.63;19.67;;;;;;;;;;4990547;28;20808;-63
2023/01/19 09:37:30;;;;;;;34.70;20.17;;;;;;;;;;4990541;28;20276;-63
2023/01/19 09:40:14;;;;;;;35.50;17.70;;;;;;;;;;4990489;28;20311;-63
2023/01/19 09:42:42;;;;;;;32.67;17.70;;;;;;;;;;4988870;28;20201;-63
2023/01/19 09:45:38;;;;;;;29.50;15.03;;;;;;;;;;4990285;28;20193;-63
2023/01/19 09:48:10;;;;;;;34.47;17.47;;;;;;;;;;4977835;28;20255;-63
2023/01/19 09:50:55;;;;;;;29.87;15.57;;;;;;;;;;4989143;28;20193;-63
2023/01/19 09:53:33;;;;;;;26.23;15.43;;;;;;;;;;4989179;28;20196;-63
2023/01/19 09:56:00;;;;;;;22.97;14.67;;;;;;;;;;4989144;28;20312;-63
2023/01/19 09:58:27;;;;;;;26.60;14.43;;;;;;;;;;4990256;28;20200;-63
2023/01/19 10:00:58;;;;;;;28.27;15.50;;;;;;;;;;4990642;28;20181;-63
2023/01/19 10:03:24;;;;;;;33.17;15.27;;;;;;;;;;4989077;28;20207;-63
2023/01/19 10:05:52;;;;;;;24.70;14.67;;;;;;;;;;4990259;28;20243;-63
2023/01/19 10:08:19;;;;;;;30.90;14.83;;;;;;;;;;4987840;28;20668;-62
2023/01/19 10:11:05;;;;;;;32.13;16.87;;;;;;;;;;4986797;28;20268;-64
2023/01/19 10:13:40;;;;;;;27.63;14.20;;;;;;;;;;4990299;28;20731;-63
2023/01/19 10:16:56;;;;;;;18.10;10.37;;;;;;;;;;4984340;28;20256;-63
2023/01/19 10:19:29;;;;;;;18.17;9.77;;;;;;;;;;4960595;28;20202;-64
2023/01/19 10:21:57;;;;;;;17.87;9.73;;;;;;;;;;4967511;28;20568;-62
2023/01/19 10:24:39;;;;;;;17.37;7.33;;;;;;;;;;4981972;28;20652;-63
2023/01/19 10:27:12;;;;;;;18.83;8.70;;;;;;;;;;4978469;28;20204;-66
2023/01/19 10:29:39;;;;;;;17.10;8.43;;;;;;;;;;4979408;28;20224;-62
2023/01/19 10:32:18;;;;;;;16.83;8.27;;;;;;;;;;4980420;28;20209;-63
2023/01/19 10:34:45;;;;;;;15.47;7.20;;;;;;;;;;4980912;28;21315;-64
2023/01/19 10:37:21;;;;;;;14.13;7.10;;;;;;;;;;4984308;28;20278;-65
2023/01/19 10:39:51;;;;;;;14.80;7.50;;;;;;;;;;4982985;28;20208;-63
2023/01/19 10:42:18;;;;;;;11.37;5.43;;;;;;;;;;4983702;28;20200;-62
2023/01/19 10:44:45;;;;;;;12.10;5.93;;;;;;;;;;4976521;28;20236;-63
2023/01/19 10:47:16;;;;;;;10.77;5.07;;;;;;;;;;4983426;28;20193;-63
2023/01/19 10:49:44;;;;;;;10.60;4.70;;;;;;;;;;4982857;28;20766;-62
2023/01/19 10:52:30;;;;;;;10.73;5.03;;;;;;;;;;4984616;28;20209;-61
2023/01/19 10:54:58;;;;;;;10.50;4.97;;;;;;;;;;4986439;28;20212;-64
2023/01/19 10:57:35;;;;;;;9.97;4.27;;;;;;;;;;4983141;28;20736;-62
2023/01/19 11:00:05;;;;;;;7.33;3.90;;;;;;;;;;4983808;28;20359;-64
2023/01/19 11:02:32;;;;;;;9.57;4.37;;;;;;;;;;4984387;28;20212;-61
2023/01/19 11:05:20;;;;;;;9.90;4.50;;;;;;;;;;4986481;28;20910;-63
2023/01/19 11:08:15;;;;;;;14.70;7.00;;;;;;;;;;5003549;28;20188;-63
2023/01/19 11:10:42;;;;;;;13.17;6.80;;;;;;;;;;4984483;28;20679;-62
2023/01/19 11:13:12;;;;;;;14.43;7.00;;;;;;;;;;5000472;28;20690;-63
2023/01/19 11:15:41;;;;;;;12.20;6.63;;;;;;;;;;5000462;28;20196;-63
2023/01/19 11:18:21;;;;;;;14.23;7.27;;;;;;;;;;5002215;28;20216;-63
2023/01/19 11:20:48;;;;;;;12.23;7.10;;;;;;;;;;5002412;28;20570;-62
2023/01/19 11:23:15;;;;;;;13.63;6.23;;;;;;;;;;5001888;28;20703;-64
2023/01/19 11:25:44;;;;;;;15.00;7.30;;;;;;;;;;4987281;28;20355;-62
2023/01/19 11:28:29;;;;;;;10.10;5.63;;;;;;;;;;4983275;28;20218;-62
2023/01/19 11:31:00;;;;;;;10.57;5.70;;;;;;;;;;4981376;28;20228;-62
2023/01/19 11:33:46;;;;;;;11.43;5.40;;;;;;;;;;4980250;28;20208;-62
2023/01/19 11:36:17;;;;;;;12.37;5.57;;;;;;;;;;4983114;28;20212;-61
2023/01/19 11:38:44;;;;;;;7.07;4.23;;;;;;;;;;4981221;28;20207;-63
2023/01/19 11:41:16;;;;;;;9.10;3.67;;;;;;;;;;4979509;28;20600;-63
2023/01/19 11:43:46;;;;;;;7.70;3.37;;;;;;;;;;4982216;28;20197;-62
2023/01/19 11:46:15;;;;;;;7.17;3.83;;;;;;;;;;4969778;28;20268;-62
2023/01/19 11:48:42;;;;;;;7.30;3.73;;;;;;;;;;4978509;28;20486;-62
2023/01/19 11:51:11;;;;;;;5.97;3.47;;;;;;;;;;4966796;28;20253;-62
2023/01/19 11:53:38;;;;;;;9.43;3.60;;;;;;;;;;4983744;28;20812;-62
2023/01/19 11:56:11;;;;;;;6.57;3.47;;;;;;;;;;4982996;28;20692;-62
2023/01/19 11:58:38;;;;;;;5.40;2.80;;;;;;;;;;4983471;28;21357;-61
2023/01/19 12:01:11;;;;;;;4.80;2.60;;;;;;;;;;4983742;28;20256;-63
2023/01/19 12:03:39;;;;;;;3.60;1.77;;;;;;;;;;4983801;28;20211;-63
2023/01/19 12:06:08;;;;;;;5.77;2.23;;;;;;;;;;4984504;28;20208;-62
2023/01/19 12:08:35;;;;;;;4.23;2.60;;;;;;;;;;4984662;28;20721;-62
2023/01/19 12:11:03;;;;;;;6.80;2.43;;;;;;;;;;4967505;28;20235;-61
2023/01/19 12:13:30;;;;;;;5.87;2.60;;;;;;;;;;4984324;28;20192;-61
2023/01/19 12:16:01;;;;;;;5.97;2.40;;;;;;;;;;4982897;28;20200;-64
2023/01/19 12:18:29;;;;;;;5.33;2.43;;;;;;;;;;4982476;28;20263;-64
2023/01/19 12:20:57;;;;;;;6.77;2.97;;;;;;;;;;4982350;28;20247;-62
2023/01/19 12:23:29;;;;;;;4.50;2.40;;;;;;;;;;4975079;28;20558;-62
2023/01/19 12:25:59;;;;;;;6.30;2.60;;;;;;;;;;4997550;28;20209;-61
2023/01/19 12:28:27;;;;;;;6.93;2.80;;;;;;;;;;4983464;28;20200;-63
2023/01/19 12:30:54;;;;;;;4.60;2.83;;;;;;;;;;4982387;28;20295;-62
2023/01/19 12:33:21;;;;;;;5.20;2.70;;;;;;;;;;4983014;28;20188;-61
2023/01/19 12:35:56;;;;;;;6.37;2.50;;;;;;;;;;4982604;28;20200;-62
2023/01/19 12:38:28;;;;;;;5.57;2.43;;;;;;;;;;4983038;28;20595;-62
2023/01/19 12:41:14;;;;;;;5.73;2.90;;;;;;;;;;4982469;28;20207;-63
2023/01/19 12:44:07;;;;;;;4.90;2.20;;;;;;;;;;4984390;28;20770;-63
2023/01/19 12:46:34;;;;;;;2.50;1.73;;;;;;;;;;4983140;28;20200;-63
2023/01/19 12:49:19;;;;;;;3.17;1.87;;;;;;;;;;4984033;28;20334;-63
2023/01/19 12:51:46;;;;;;;5.30;2.60;;;;;;;;;;4983055;28;20196;-63
2023/01/19 12:54:31;;;;;;;3.90;2.40;;;;;;;;;;4984162;28;20248;-64
2023/01/19 12:56:59;;;;;;;3.97;2.70;;;;;;;;;;4981854;28;20446;-64
2023/01/19 12:59:27;;;;;;;5.87;2.50;;;;;;;;;;4983266;28;20444;-63
2023/01/19 13:02:12;;;;;;;5.77;2.93;;;;;;;;;;4985029;28;20444;-63
2023/01/19 13:04:39;;;;;;;6.50;3.23;;;;;;;;;;4983547;28;20201;-63
2023/01/19 13:07:09;;;;;;;8.50;3.63;;;;;;;;;;4983254;28;20204;-63
2023/01/19 13:09:37;;;;;;;5.37;2.93;;;;;;;;;;4982683;28;20215;-63
2023/01/19 13:12:12;;;;;;;4.53;2.83;;;;;;;;;;5014377;28;20196;-64
2023/01/19 13:14:42;;;;;;;6.63;3.00;;;;;;;;;;4981932;28;20262;-63
2023/01/19 13:17:28;;;;;;;4.20;2.60;;;;;;;;;;4983356;28;20229;-63
2023/01/19 13:20:21;;;;;;;4.17;2.90;;;;;;;;;;4982243;28;20251;-63
2023/01/19 13:23:14;;;;;;;5.93;3.00;;;;;;;;;;4965942;28;20315;-64
2023/01/19 13:25:42;;;;;;;8.07;3.53;;;;;;;;;;4981282;28;20231;-64
2023/01/19 13:28:10;;;;;;;4.50;2.93;;;;;;;;;;4983183;28;20193;-66
2023/01/19 13:30:39;;;;;;;6.40;3.23;;;;;;;;;;4982315;28;20223;-64
2023/01/19 13:33:09;;;;;;;7.47;3.73;;;;;;;;;;4982477;28;20251;-64
2023/01/19 13:35:36;;;;;;;6.70;3.90;;;;;;;;;;4981947;28;20251;-63
2023/01/19 13:38:02;;;;;;;5.40;3.20;;;;;;;;;;4984075;28;20439;-62
2023/01/19 13:40:38;;;;;;;5.73;3.30;;;;;;;;;;4982514;28;21148;-63
2023/01/19 13:43:06;;;;;;;6.67;3.30;;;;;;;;;;4982853;28;20444;-62
2023/01/19 13:45:33;;;;;;;6.30;3.23;;;;;;;;;;4979608;28;20502;-63
2023/01/19 13:48:01;;;;;;;5.67;2.67;;;;;;;;;;4981394;28;21667;-63
2023/01/19 13:50:29;;;;;;;4.33;3.00;;;;;;;;;;4982920;28;20490;-63
2023/01/19 13:52:57;;;;;;;4.20;2.77;;;;;;;;;;4983264;28;20439;-63
2023/01/19 13:55:25;;;;;;;6.13;3.00;;;;;;;;;;4983346;28;20478;-62
2023/01/19 13:58:13;;;;;;;6.37;3.00;;;;;;;;;;4982323;28;20531;-63
2023/01/19 14:00:46;;;;;;;5.90;3.30;;;;;;;;;;4975093;28;20452;-61
2023/01/19 14:03:20;;;;;;;5.67;3.07;;;;;;;;;;4981807;28;20458;-63
2023/01/19 14:05:51;;;;;;;6.53;2.77;;;;;;;;;;4982384;28;20526;-63
2023/01/19 14:08:35;;;;;;;6.23;3.30;;;;;;;;;;4991129;28;20563;-63
2023/01/19 14:11:03;;;;;;;6.30;3.70;;;;;;;;;;4984636;28;20552;-63
2023/01/19 14:13:30;;;;;;;7.83;3.63;;;;;;;;;;4986550;28;21842;-64
2023/01/19 14:15:58;;;;;;;7.67;3.67;;;;;;;;;;4986061;28;20431;-64
2023/01/19 14:18:26;;;;;;;6.60;3.20;;;;;;;;;;4985311;28;20792;-63
2023/01/19 14:21:11;;;;;;;7.17;3.37;;;;;;;;;;4985547;28;20514;-63
2023/01/19 14:24:00;;;;;;;6.10;3.57;;;;;;;;;;4978025;28;20467;-63
2023/01/19 14:26:36;;;;;;;8.60;3.80;;;;;;;;;;4981246;28;20538;-63
2023/01/19 14:29:15;;;;;;;8.73;5.20;;;;;;;;;;4986763;28;21874;-63
2023/01/19 14:32:00;;;;;;;10.07;4.70;;;;;;;;;;4983442;28;20431;-63
2023/01/19 14:34:40;;;;;;;12.00;7.37;;;;;;;;;;4985763;28;21125;-62
2023/01/19 14:37:27;;;;;;;10.43;6.50;;;;;;;;;;4986232;28;20470;-62
2023/01/19 14:39:59;;;;;;;13.27;8.83;;;;;;;;;;4986365;28;20567;-63
2023/01/19 14:42:27;;;;;;;15.07;8.13;;;;;;;;;;4985575;28;20550;-62
2023/01/19 14:44:54;;;;;;;13.33;8.07;;;;;;;;;;4987587;28;20448;-62
2023/01/19 14:47:34;;;;;;;12.10;7.00;;;;;;;;;;4992826;28;20466;-63
2023/01/19 14:50:03;;;;;;;16.77;7.37;;;;;;;;;;4985559;28;21008;-62
2023/01/19 14:52:31;;;;;;;15.60;8.53;;;;;;;;;;4985672;28;20440;-63
2023/01/19 14:54:58;;;;;;;18.40;9.23;;;;;;;;;;4978674;28;20448;-63
2023/01/19 14:57:25;;;;;;;20.77;9.83;;;;;;;;;;4985206;28;21159;-63
2023/01/19 14:59:52;;;;;;;18.70;10.37;;;;;;;;;;4986244;28;20531;-62
2023/01/19 15:02:19;;;;;;;25.27;11.30;;;;;;;;;;4985994;28;20929;-64
2023/01/19 15:05:03;;;;;;;22.07;10.63;;;;;;;;;;4986073;28;20947;-64
2023/01/19 15:07:31;;;;;;;17.23;8.93;;;;;;;;;;4985169;28;20444;-62
2023/01/19 15:09:58;;;;;;;20.50;10.10;;;;;;;;;;4986075;28;20531;-64
2023/01/19 15:12:24;;;;;;;19.07;9.87;;;;;;;;;;4984467;28;20538;-63
2023/01/19 15:14:51;;;;;;;19.07;9.37;;;;;;;;;;4986245;28;20444;-63
2023/01/19 15:17:24;;;;;;;25.60;12.80;;;;;;;;;;4983928;28;20491;-64
2023/01/19 15:19:54;;;;;;;26.93;13.87;;;;;;;;;;4984027;28;20924;-64
2023/01/19 15:22:25;;;;;;;22.40;11.57;;;;;;;;;;4984589;28;20439;-63
2023/01/19 15:24:56;;;;;;;18.60;8.97;;;;;;;;;;4974624;28;20562;-62
2023/01/19 15:27:23;;;;;;;16.80;8.50;;;;;;;;;;4983103;28;20476;-63
2023/01/19 15:29:50;;;;;;;19.30;10.43;;;;;;;;;;4985496;28;20439;-62
2023/01/19 15:32:17;;;;;;;21.03;11.03;;;;;;;;;;4986272;28;20480;-62
2023/01/19 15:34:43;;;;;;;23.13;11.40;;;;;;;;;;4984474;28;21042;-63
2023/01/19 15:37:10;;;;;;;21.87;11.33;;;;;;;;;;4984249;28;20458;-63